sensor_id;sensor_type;location;lat;lon;timestamp;temperature;humidity
11744;DHT22;5929;51.906;7.674;2023-07-29T00:00:42;19.20;99.90
11744;DHT22;5929;51.906;7.674;2023-07-29T00:03:09;19.20;99.90
11744;DHT22;5929;51.906;7.674;2023-07-29T00:05:36;19.10;99.90
11744;DHT22;5929;51.906;7.674;2023-07-29T00:08:04;19.20;99.90
11744;DHT22;5929;51.906;7.674;2023-07-29T00:10:32;19.20;99.90
11744;DHT22;5929;51.906;7.674;2023-07-29T00:12:59;19.20;99.90
11744;DHT22;5929;51.906;7.674;2023-07-29T00:15:27;19.10;99.90
11744;DHT22;5929;51.906;7.674;2023-07-29T00:17:54;19.20;99.90
11744;DHT22;5929;51.906;7.674;2023-07-29T00:20:20;19.10;99.90
11744;DHT22;5929;51.906;7.674;2023-07-29T00:22:47;19.10;99.90
11744;DHT22;5929;51.906;7.674;2023-07-29T00:25:15;19.10;99.90
11744;DHT22;5929;51.906;7.674;2023-07-29T00:27:42;19.20;99.90
11744;DHT22;5929;51.906;7.674;2023-07-29T00:30:09;19.20;99.90
11744;DHT22;5929;51.906;7.674;2023-07-29T00:32:38;19.20;99.90
11744;DHT22;5929;51.906;7.674;2023-07-29T00:35:06;19.20;99.90
11744;DHT22;5929;51.906;7.674;2023-07-29T00:37:33;19.20;99.90
11744;DHT22;5929;51.906;7.674;2023-07-29T00:39:59;19.20;99.90
11744;DHT22;5929;51.906;7.674;2023-07-29T00:42:26;19.10;99.90
11744;DHT22;5929;51.906;7.674;2023-07-29T00:44:53;19.10;99.90
11744;DHT22;5929;51.906;7.674;2023-07-29T00:47:22;19.00;99.90
11744;DHT22;5929;51.906;7.674;2023-07-29T00:49:51;19.00;99.90
11744;DHT22;5929;51.906;7.674;2023-07-29T00:52:18;19.00;99.90
11744;DHT22;5929;51.906;7.674;2023-07-29T00:54:45;19.00;99.90
11744;DHT22;5929;51.906;7.674;2023-07-29T00:57:14;19.00;99.90
11744;DHT22;5929;51.906;7.674;2023-07-29T00:59:41;18.90;99.90
11744;DHT22;5929;51.906;7.674;2023-07-29T01:02:08;18.80;99.90
11744;DHT22;5929;51.906;7.674;2023-07-29T01:04:35;18.80;99.90
11744;DHT22;5929;51.906;7.674;2023-07-29T01:07:10;18.80;99.90
11744;DHT22;5929;51.906;7.674;2023-07-29T01:09:45;18.80;99.90
11744;DHT22;5929;51.906;7.674;2023-07-29T01:12:21;18.80;99.90
11744;DHT22;5929;51.906;7.674;2023-07-29T01:15:00;18.80;99.90
11744;DHT22;5929;51.906;7.674;2023-07-29T01:17:33;18.70;99.90
11744;DHT22;5929;51.906;7.674;2023-07-29T01:20:07;18.60;99.90
11744;DHT22;5929;51.906;7.674;2023-07-29T01:22:39;18.60;99.90
11744;DHT22;5929;51.906;7.674;2023-07-29T01:25:08;18.60;99.90
11744;DHT22;5929;51.906;7.674;2023-07-29T01:27:35;18.70;99.90
11744;DHT22;5929;51.906;7.674;2023-07-29T01:30:02;18.70;99.90
11744;DHT22;5929;51.906;7.674;2023-07-29T01:32:37;18.60;99.90
11744;DHT22;5929;51.906;7.674;2023-07-29T01:35:17;18.60;99.90
11744;DHT22;5929;51.906;7.674;2023-07-29T01:37:49;18.50;99.90
11744;DHT22;5929;51.906;7.674;2023-07-29T01:40:19;18.50;99.90
11744;DHT22;5929;51.906;7.674;2023-07-29T01:42:46;18.40;99.90
11744;DHT22;5929;51.906;7.674;2023-07-29T01:45:13;18.40;99.90
11744;DHT22;5929;51.906;7.674;2023-07-29T01:47:40;18.30;99.90
11744;DHT22;5929;51.906;7.674;2023-07-29T01:50:08;18.30;99.90
11744;DHT22;5929;51.906;7.674;2023-07-29T01:52:35;18.20;99.90
11744;DHT22;5929;51.906;7.674;2023-07-29T01:55:02;18.10;99.90
11744;DHT22;5929;51.906;7.674;2023-07-29T01:57:30;18.10;99.90
11744;DHT22;5929;51.906;7.674;2023-07-29T01:59:57;18.10;99.90
11744;DHT22;5929;51.906;7.674;2023-07-29T02:02:24;18.10;99.90
11744;DHT22;5929;51.906;7.674;2023-07-29T02:04:50;18.20;99.90
11744;DHT22;5929;51.906;7.674;2023-07-29T02:07:18;18.20;99.90
11744;DHT22;5929;51.906;7.674;2023-07-29T02:09:45;18.20;99.90
11744;DHT22;5929;51.906;7.674;2023-07-29T02:12:12;18.30;99.90
11744;DHT22;5929;51.906;7.674;2023-07-29T02:14:40;18.30;99.90
11744;DHT22;5929;51.906;7.674;2023-07-29T02:17:07;18.40;99.90
11744;DHT22;5929;51.906;7.674;2023-07-29T02:19:34;18.40;99.90
11744;DHT22;5929;51.906;7.674;2023-07-29T02:22:01;18.40;99.90
11744;DHT22;5929;51.906;7.674;2023-07-29T02:24:28;18.40;99.90
11744;DHT22;5929;51.906;7.674;2023-07-29T02:26:55;18.40;99.90
11744;DHT22;5929;51.906;7.674;2023-07-29T02:29:22;18.50;99.90
11744;DHT22;5929;51.906;7.674;2023-07-29T02:31:52;18.50;99.90
11744;DHT22;5929;51.906;7.674;2023-07-29T02:34:19;18.50;99.90
11744;DHT22;5929;51.906;7.674;2023-07-29T02:36:46;18.50;99.90
11744;DHT22;5929;51.906;7.674;2023-07-29T02:39:13;18.50;99.90
11744;DHT22;5929;51.906;7.674;2023-07-29T02:41:40;18.50;99.90
11744;DHT22;5929;51.906;7.674;2023-07-29T02:44:07;18.50;99.90
11744;DHT22;5929;51.906;7.674;2023-07-29T02:46:34;18.50;99.90
11744;DHT22;5929;51.906;7.674;2023-07-29T02:49:03;18.40;99.90
11744;DHT22;5929;51.906;7.674;2023-07-29T02:51:30;18.40;99.90
11744;DHT22;5929;51.906;7.674;2023-07-29T02:53:57;18.40;99.90
11744;DHT22;5929;51.906;7.674;2023-07-29T02:56:24;18.40;99.90
11744;DHT22;5929;51.906;7.674;2023-07-29T02:58:53;18.40;99.90
11744;DHT22;5929;51.906;7.674;2023-07-29T03:01:20;18.50;99.90
11744;DHT22;5929;51.906;7.674;2023-07-29T03:03:47;18.50;99.90
11744;DHT22;5929;51.906;7.674;2023-07-29T03:06:16;18.50;99.90
11744;DHT22;5929;51.906;7.674;2023-07-29T03:08:43;18.50;99.90
11744;DHT22;5929;51.906;7.674;2023-07-29T03:11:13;18.40;99.90
11744;DHT22;5929;51.906;7.674;2023-07-29T03:13:41;18.40;99.90
11744;DHT22;5929;51.906;7.674;2023-07-29T03:16:09;18.40;99.90
11744;DHT22;5929;51.906;7.674;2023-07-29T03:18:36;18.40;99.90
11744;DHT22;5929;51.906;7.674;2023-07-29T03:21:04;18.50;99.90
11744;DHT22;5929;51.906;7.674;2023-07-29T03:23:33;18.50;99.90
11744;DHT22;5929;51.906;7.674;2023-07-29T03:26:01;18.50;99.90
11744;DHT22;5929;51.906;7.674;2023-07-29T03:28:36;18.50;99.90
11744;DHT22;5929;51.906;7.674;2023-07-29T03:31:05;18.50;99.90
11744;DHT22;5929;51.906;7.674;2023-07-29T03:33:33;18.60;99.90
11744;DHT22;5929;51.906;7.674;2023-07-29T03:36:00;18.60;99.90
11744;DHT22;5929;51.906;7.674;2023-07-29T03:38:27;18.70;99.90
11744;DHT22;5929;51.906;7.674;2023-07-29T03:40:56;18.70;99.90
11744;DHT22;5929;51.906;7.674;2023-07-29T03:43:24;18.70;99.90
11744;DHT22;5929;51.906;7.674;2023-07-29T03:45:53;18.70;99.90
11744;DHT22;5929;51.906;7.674;2023-07-29T03:48:20;18.70;99.90
11744;DHT22;5929;51.906;7.674;2023-07-29T03:50:47;18.70;99.90
11744;DHT22;5929;51.906;7.674;2023-07-29T03:53:16;18.70;99.90
11744;DHT22;5929;51.906;7.674;2023-07-29T03:55:43;18.60;99.90
11744;DHT22;5929;51.906;7.674;2023-07-29T03:58:14;18.70;99.90
11744;DHT22;5929;51.906;7.674;2023-07-29T04:00:41;18.60;99.90
11744;DHT22;5929;51.906;7.674;2023-07-29T04:03:08;18.60;99.90
11744;DHT22;5929;51.906;7.674;2023-07-29T04:05:35;18.60;99.90
11744;DHT22;5929;51.906;7.674;2023-07-29T04:08:02;18.50;99.90
11744;DHT22;5929;51.906;7.674;2023-07-29T04:10:29;18.60;99.90
11744;DHT22;5929;51.906;7.674;2023-07-29T04:12:57;18.60;99.90
11744;DHT22;5929;51.906;7.674;2023-07-29T04:15:26;18.60;99.90
11744;DHT22;5929;51.906;7.674;2023-07-29T04:17:53;18.60;99.90
11744;DHT22;5929;51.906;7.674;2023-07-29T04:20:19;18.50;99.90
11744;DHT22;5929;51.906;7.674;2023-07-29T04:22:46;18.50;99.90
11744;DHT22;5929;51.906;7.674;2023-07-29T04:25:13;18.50;99.90
11744;DHT22;5929;51.906;7.674;2023-07-29T04:27:40;18.50;99.90
11744;DHT22;5929;51.906;7.674;2023-07-29T04:30:08;18.50;99.90
11744;DHT22;5929;51.906;7.674;2023-07-29T04:32:36;18.50;99.90
11744;DHT22;5929;51.906;7.674;2023-07-29T04:35:04;18.60;99.90
11744;DHT22;5929;51.906;7.674;2023-07-29T04:37:31;18.60;99.90
11744;DHT22;5929;51.906;7.674;2023-07-29T04:39:58;18.60;99.90
11744;DHT22;5929;51.906;7.674;2023-07-29T04:42:25;18.60;99.90
11744;DHT22;5929;51.906;7.674;2023-07-29T04:44:52;18.70;99.90
11744;DHT22;5929;51.906;7.674;2023-07-29T04:47:19;18.70;99.90
11744;DHT22;5929;51.906;7.674;2023-07-29T04:49:47;18.70;99.90
11744;DHT22;5929;51.906;7.674;2023-07-29T04:52:14;18.70;99.90
11744;DHT22;5929;51.906;7.674;2023-07-29T04:54:41;18.70;99.90
11744;DHT22;5929;51.906;7.674;2023-07-29T04:57:08;18.80;99.90
11744;DHT22;5929;51.906;7.674;2023-07-29T04:59:35;18.80;99.90
11744;DHT22;5929;51.906;7.674;2023-07-29T05:02:02;18.80;99.90
11744;DHT22;5929;51.906;7.674;2023-07-29T05:04:29;18.80;99.90
11744;DHT22;5929;51.906;7.674;2023-07-29T05:06:58;18.80;99.90
11744;DHT22;5929;51.906;7.674;2023-07-29T05:09:25;18.80;99.90
11744;DHT22;5929;51.906;7.674;2023-07-29T05:11:52;18.90;99.90
11744;DHT22;5929;51.906;7.674;2023-07-29T05:14:19;18.90;99.90
11744;DHT22;5929;51.906;7.674;2023-07-29T05:16:46;18.90;99.90
11744;DHT22;5929;51.906;7.674;2023-07-29T05:19:13;18.90;99.90
11744;DHT22;5929;51.906;7.674;2023-07-29T05:21:40;18.90;99.90
11744;DHT22;5929;51.906;7.674;2023-07-29T05:24:08;19.00;99.90
11744;DHT22;5929;51.906;7.674;2023-07-29T05:26:35;19.00;99.90
11744;DHT22;5929;51.906;7.674;2023-07-29T05:29:02;19.00;99.90
11744;DHT22;5929;51.906;7.674;2023-07-29T05:31:29;19.00;99.90
11744;DHT22;5929;51.906;7.674;2023-07-29T05:33:58;19.00;99.90
11744;DHT22;5929;51.906;7.674;2023-07-29T05:36:25;19.00;99.90
11744;DHT22;5929;51.906;7.674;2023-07-29T05:38:52;19.10;99.90
11744;DHT22;5929;51.906;7.674;2023-07-29T05:41:20;19.10;99.90
11744;DHT22;5929;51.906;7.674;2023-07-29T05:43:47;19.10;99.90
11744;DHT22;5929;51.906;7.674;2023-07-29T05:46:14;19.20;99.90
11744;DHT22;5929;51.906;7.674;2023-07-29T05:48:41;19.20;99.90
11744;DHT22;5929;51.906;7.674;2023-07-29T05:51:08;19.30;99.90
11744;DHT22;5929;51.906;7.674;2023-07-29T05:53:35;19.30;99.90
11744;DHT22;5929;51.906;7.674;2023-07-29T05:56:02;19.30;99.90
11744;DHT22;5929;51.906;7.674;2023-07-29T05:58:30;19.30;99.90
11744;DHT22;5929;51.906;7.674;2023-07-29T06:00:57;19.20;99.90
11744;DHT22;5929;51.906;7.674;2023-07-29T06:03:24;19.30;99.90
11744;DHT22;5929;51.906;7.674;2023-07-29T06:05:51;19.40;99.90
11744;DHT22;5929;51.906;7.674;2023-07-29T06:08:18;19.40;99.90
11744;DHT22;5929;51.906;7.674;2023-07-29T06:10:45;19.50;99.90
11744;DHT22;5929;51.906;7.674;2023-07-29T06:13:11;19.50;99.90
11744;DHT22;5929;51.906;7.674;2023-07-29T06:15:40;19.60;99.90
11744;DHT22;5929;51.906;7.674;2023-07-29T06:18:06;19.50;99.90
11744;DHT22;5929;51.906;7.674;2023-07-29T06:20:33;19.60;99.90
11744;DHT22;5929;51.906;7.674;2023-07-29T06:23:00;19.60;99.90
11744;DHT22;5929;51.906;7.674;2023-07-29T06:25:27;19.60;99.90
11744;DHT22;5929;51.906;7.674;2023-07-29T06:27:54;19.50;99.90
11744;DHT22;5929;51.906;7.674;2023-07-29T06:30:23;19.50;99.90
11744;DHT22;5929;51.906;7.674;2023-07-29T06:32:51;19.50;99.90
11744;DHT22;5929;51.906;7.674;2023-07-29T06:35:18;19.50;99.90
11744;DHT22;5929;51.906;7.674;2023-07-29T06:37:45;19.30;99.90
11744;DHT22;5929;51.906;7.674;2023-07-29T06:40:12;19.40;99.90
11744;DHT22;5929;51.906;7.674;2023-07-29T06:42:39;19.40;99.90
11744;DHT22;5929;51.906;7.674;2023-07-29T06:45:06;19.50;99.90
11744;DHT22;5929;51.906;7.674;2023-07-29T06:47:33;19.50;99.90
11744;DHT22;5929;51.906;7.674;2023-07-29T06:50:02;19.60;99.90
11744;DHT22;5929;51.906;7.674;2023-07-29T06:52:28;19.50;99.90
11744;DHT22;5929;51.906;7.674;2023-07-29T06:54:55;19.50;99.90
11744;DHT22;5929;51.906;7.674;2023-07-29T06:57:23;19.50;99.90
11744;DHT22;5929;51.906;7.674;2023-07-29T06:59:49;19.60;99.90
11744;DHT22;5929;51.906;7.674;2023-07-29T07:02:16;19.60;99.90
11744;DHT22;5929;51.906;7.674;2023-07-29T07:04:43;19.60;99.90
11744;DHT22;5929;51.906;7.674;2023-07-29T07:07:11;19.60;99.90
11744;DHT22;5929;51.906;7.674;2023-07-29T07:09:38;19.50;99.90
11744;DHT22;5929;51.906;7.674;2023-07-29T07:12:05;19.40;99.90
11744;DHT22;5929;51.906;7.674;2023-07-29T07:14:32;19.50;99.90
11744;DHT22;5929;51.906;7.674;2023-07-29T07:16:59;19.50;99.90
11744;DHT22;5929;51.906;7.674;2023-07-29T07:19:26;19.40;99.90
11744;DHT22;5929;51.906;7.674;2023-07-29T07:21:53;19.40;99.90
11744;DHT22;5929;51.906;7.674;2023-07-29T07:24:21;19.40;99.90
11744;DHT22;5929;51.906;7.674;2023-07-29T07:26:48;19.50;99.90
11744;DHT22;5929;51.906;7.674;2023-07-29T07:29:15;19.50;99.90
11744;DHT22;5929;51.906;7.674;2023-07-29T07:31:50;19.20;99.90
11744;DHT22;5929;51.906;7.674;2023-07-29T07:34:17;19.20;99.90
11744;DHT22;5929;51.906;7.674;2023-07-29T07:36:44;19.30;99.90
11744;DHT22;5929;51.906;7.674;2023-07-29T07:39:11;19.50;99.90
11744;DHT22;5929;51.906;7.674;2023-07-29T07:41:40;19.40;99.90
11744;DHT22;5929;51.906;7.674;2023-07-29T07:44:07;19.50;99.90
11744;DHT22;5929;51.906;7.674;2023-07-29T07:46:33;19.60;99.90
11744;DHT22;5929;51.906;7.674;2023-07-29T07:49:00;19.60;99.90
11744;DHT22;5929;51.906;7.674;2023-07-29T07:51:27;19.50;99.90
11744;DHT22;5929;51.906;7.674;2023-07-29T07:53:54;19.40;99.90
11744;DHT22;5929;51.906;7.674;2023-07-29T07:56:21;19.60;99.90
11744;DHT22;5929;51.906;7.674;2023-07-29T07:58:49;19.60;99.90
11744;DHT22;5929;51.906;7.674;2023-07-29T08:01:16;19.70;99.90
11744;DHT22;5929;51.906;7.674;2023-07-29T08:03:45;19.80;99.90
11744;DHT22;5929;51.906;7.674;2023-07-29T08:06:12;19.80;99.90
11744;DHT22;5929;51.906;7.674;2023-07-29T08:08:38;20.10;99.90
11744;DHT22;5929;51.906;7.674;2023-07-29T08:11:05;20.10;99.90
11744;DHT22;5929;51.906;7.674;2023-07-29T08:13:32;20.20;99.90
11744;DHT22;5929;51.906;7.674;2023-07-29T08:16:00;20.20;99.90
11744;DHT22;5929;51.906;7.674;2023-07-29T08:18:27;20.20;99.90
11744;DHT22;5929;51.906;7.674;2023-07-29T08:20:54;20.40;99.90
11744;DHT22;5929;51.906;7.674;2023-07-29T08:23:24;20.40;99.90
11744;DHT22;5929;51.906;7.674;2023-07-29T08:25:54;20.70;99.90
11744;DHT22;5929;51.906;7.674;2023-07-29T08:28:26;21.20;99.90
11744;DHT22;5929;51.906;7.674;2023-07-29T08:30:53;21.40;99.90
11744;DHT22;5929;51.906;7.674;2023-07-29T08:33:21;21.40;99.90
11744;DHT22;5929;51.906;7.674;2023-07-29T08:35:48;21.10;99.90
11744;DHT22;5929;51.906;7.674;2023-07-29T08:38:15;20.80;99.90
11744;DHT22;5929;51.906;7.674;2023-07-29T08:40:45;21.00;99.90
11744;DHT22;5929;51.906;7.674;2023-07-29T08:43:17;20.70;99.90
11744;DHT22;5929;51.906;7.674;2023-07-29T08:45:46;20.50;99.90
11744;DHT22;5929;51.906;7.674;2023-07-29T08:48:15;20.70;99.90
11744;DHT22;5929;51.906;7.674;2023-07-29T08:50:51;20.80;99.90
11744;DHT22;5929;51.906;7.674;2023-07-29T08:53:19;20.70;99.90
11744;DHT22;5929;51.906;7.674;2023-07-29T08:55:47;20.60;99.90
11744;DHT22;5929;51.906;7.674;2023-07-29T08:58:14;20.70;99.90
11744;DHT22;5929;51.906;7.674;2023-07-29T09:00:44;20.80;99.90
11744;DHT22;5929;51.906;7.674;2023-07-29T09:03:11;20.70;99.90
11744;DHT22;5929;51.906;7.674;2023-07-29T09:05:38;20.60;99.90
11744;DHT22;5929;51.906;7.674;2023-07-29T09:08:07;20.70;99.90
11744;DHT22;5929;51.906;7.674;2023-07-29T09:10:35;20.70;99.90
11744;DHT22;5929;51.906;7.674;2023-07-29T09:13:02;20.70;99.90
11744;DHT22;5929;51.906;7.674;2023-07-29T09:15:30;20.90;99.90
11744;DHT22;5929;51.906;7.674;2023-07-29T09:17:58;20.90;99.90
11744;DHT22;5929;51.906;7.674;2023-07-29T09:20:25;21.10;99.90
11744;DHT22;5929;51.906;7.674;2023-07-29T09:22:53;21.30;99.90
11744;DHT22;5929;51.906;7.674;2023-07-29T09:25:26;21.40;99.90
11744;DHT22;5929;51.906;7.674;2023-07-29T09:27:58;21.80;99.90
11744;DHT22;5929;51.906;7.674;2023-07-29T09:30:26;21.70;99.90
11744;DHT22;5929;51.906;7.674;2023-07-29T09:32:55;21.70;99.90
11744;DHT22;5929;51.906;7.674;2023-07-29T09:35:23;21.90;99.90
11744;DHT22;5929;51.906;7.674;2023-07-29T09:37:50;22.00;99.90
11744;DHT22;5929;51.906;7.674;2023-07-29T09:40:18;22.20;99.90
11744;DHT22;5929;51.906;7.674;2023-07-29T09:42:50;22.50;99.90
11744;DHT22;5929;51.906;7.674;2023-07-29T09:45:21;22.40;99.90
11744;DHT22;5929;51.906;7.674;2023-07-29T09:47:48;22.50;99.90
11744;DHT22;5929;51.906;7.674;2023-07-29T09:50:15;22.50;99.90
11744;DHT22;5929;51.906;7.674;2023-07-29T09:52:43;22.50;99.90
11744;DHT22;5929;51.906;7.674;2023-07-29T09:55:12;22.60;99.90
11744;DHT22;5929;51.906;7.674;2023-07-29T09:57:39;22.40;99.90
11744;DHT22;5929;51.906;7.674;2023-07-29T10:00:11;22.70;99.90
11744;DHT22;5929;51.906;7.674;2023-07-29T10:02:40;22.70;99.90
11744;DHT22;5929;51.906;7.674;2023-07-29T10:05:08;22.70;99.90
11744;DHT22;5929;51.906;7.674;2023-07-29T10:07:38;22.60;99.90
11744;DHT22;5929;51.906;7.674;2023-07-29T10:10:09;22.60;99.90
11744;DHT22;5929;51.906;7.674;2023-07-29T10:12:36;23.00;99.90
11744;DHT22;5929;51.906;7.674;2023-07-29T10:15:04;23.10;99.90
11744;DHT22;5929;51.906;7.674;2023-07-29T10:17:34;23.00;99.90
11744;DHT22;5929;51.906;7.674;2023-07-29T10:20:03;23.30;99.90
11744;DHT22;5929;51.906;7.674;2023-07-29T10:22:35;23.90;99.90
11744;DHT22;5929;51.906;7.674;2023-07-29T10:25:04;23.80;99.40
11744;DHT22;5929;51.906;7.674;2023-07-29T10:27:38;23.50;99.90
11744;DHT22;5929;51.906;7.674;2023-07-29T10:30:09;23.90;99.70
11744;DHT22;5929;51.906;7.674;2023-07-29T10:32:38;23.80;99.30
11744;DHT22;5929;51.906;7.674;2023-07-29T10:35:08;23.40;99.60
11744;DHT22;5929;51.906;7.674;2023-07-29T10:37:35;23.10;99.90
11744;DHT22;5929;51.906;7.674;2023-07-29T10:40:06;23.10;99.90
11744;DHT22;5929;51.906;7.674;2023-07-29T10:42:33;23.00;99.90
11744;DHT22;5929;51.906;7.674;2023-07-29T10:45:02;23.00;99.90
11744;DHT22;5929;51.906;7.674;2023-07-29T10:47:44;22.90;99.90
11744;DHT22;5929;51.906;7.674;2023-07-29T10:50:17;22.40;99.90
11744;DHT22;5929;51.906;7.674;2023-07-29T10:52:49;22.50;99.90
11744;DHT22;5929;51.906;7.674;2023-07-29T10:55:28;23.10;99.90
11744;DHT22;5929;51.906;7.674;2023-07-29T10:58:06;23.60;99.90
11744;DHT22;5929;51.906;7.674;2023-07-29T11:00:35;23.60;99.70
11744;DHT22;5929;51.906;7.674;2023-07-29T11:03:06;23.50;99.90
11744;DHT22;5929;51.906;7.674;2023-07-29T11:05:43;23.70;99.90
11744;DHT22;5929;51.906;7.674;2023-07-29T11:08:20;23.70;99.80
11744;DHT22;5929;51.906;7.674;2023-07-29T11:11:05;23.20;99.90
11744;DHT22;5929;51.906;7.674;2023-07-29T11:13:34;22.90;99.90
11744;DHT22;5929;51.906;7.674;2023-07-29T11:16:01;22.70;99.90
11744;DHT22;5929;51.906;7.674;2023-07-29T11:18:31;23.30;99.90
11744;DHT22;5929;51.906;7.674;2023-07-29T11:20:59;23.50;99.70
11744;DHT22;5929;51.906;7.674;2023-07-29T11:23:31;23.80;99.40
11744;DHT22;5929;51.906;7.674;2023-07-29T11:25:58;24.60;99.00
11744;DHT22;5929;51.906;7.674;2023-07-29T11:28:26;25.00;98.10
11744;DHT22;5929;51.906;7.674;2023-07-29T11:30:54;25.00;97.50
11744;DHT22;5929;51.906;7.674;2023-07-29T11:33:23;25.20;97.80
11744;DHT22;5929;51.906;7.674;2023-07-29T11:35:51;24.80;97.80
11744;DHT22;5929;51.906;7.674;2023-07-29T11:38:19;24.80;97.70
11744;DHT22;5929;51.906;7.674;2023-07-29T11:41:00;24.50;98.00
11744;DHT22;5929;51.906;7.674;2023-07-29T11:43:28;24.60;97.90
11744;DHT22;5929;51.906;7.674;2023-07-29T11:45:55;23.90;98.50
11744;DHT22;5929;51.906;7.674;2023-07-29T11:48:30;24.10;99.00
11744;DHT22;5929;51.906;7.674;2023-07-29T11:50:58;23.90;99.60
11744;DHT22;5929;51.906;7.674;2023-07-29T11:53:27;23.50;99.70
11744;DHT22;5929;51.906;7.674;2023-07-29T11:55:54;23.30;99.70
11744;DHT22;5929;51.906;7.674;2023-07-29T11:58:21;23.70;99.50
11744;DHT22;5929;51.906;7.674;2023-07-29T12:00:51;24.80;98.40
11744;DHT22;5929;51.906;7.674;2023-07-29T12:03:18;24.20;98.60
11744;DHT22;5929;51.906;7.674;2023-07-29T12:05:45;23.80;99.10
11744;DHT22;5929;51.906;7.674;2023-07-29T12:08:13;23.70;98.70
11744;DHT22;5929;51.906;7.674;2023-07-29T12:10:41;24.30;97.80
11744;DHT22;5929;51.906;7.674;2023-07-29T12:13:43;24.40;98.20
11744;DHT22;5929;51.906;7.674;2023-07-29T12:16:23;24.10;98.50
11744;DHT22;5929;51.906;7.674;2023-07-29T12:18:50;25.30;96.60
11744;DHT22;5929;51.906;7.674;2023-07-29T12:21:18;26.20;94.70
11744;DHT22;5929;51.906;7.674;2023-07-29T12:23:50;27.50;93.60
11744;DHT22;5929;51.906;7.674;2023-07-29T12:26:18;28.90;92.40
11744;DHT22;5929;51.906;7.674;2023-07-29T12:28:46;29.80;90.40
11744;DHT22;5929;51.906;7.674;2023-07-29T12:31:13;29.50;90.80
11744;DHT22;5929;51.906;7.674;2023-07-29T12:33:40;31.60;87.00
11744;DHT22;5929;51.906;7.674;2023-07-29T12:36:08;31.60;84.70
11744;DHT22;5929;51.906;7.674;2023-07-29T12:38:36;31.30;84.40
11744;DHT22;5929;51.906;7.674;2023-07-29T12:41:04;31.20;84.80
11744;DHT22;5929;51.906;7.674;2023-07-29T12:43:32;31.10;85.40
11744;DHT22;5929;51.906;7.674;2023-07-29T12:46:00;30.60;83.50
11744;DHT22;5929;51.906;7.674;2023-07-29T12:48:27;29.40;86.90
11744;DHT22;5929;51.906;7.674;2023-07-29T12:50:54;29.10;86.90
11744;DHT22;5929;51.906;7.674;2023-07-29T12:53:20;28.60;88.60
11744;DHT22;5929;51.906;7.674;2023-07-29T12:55:47;27.20;91.30
11744;DHT22;5929;51.906;7.674;2023-07-29T12:58:15;26.00;92.40
11744;DHT22;5929;51.906;7.674;2023-07-29T13:00:42;25.40;93.70
11744;DHT22;5929;51.906;7.674;2023-07-29T13:03:09;26.30;92.40
11744;DHT22;5929;51.906;7.674;2023-07-29T13:05:38;25.70;92.90
11744;DHT22;5929;51.906;7.674;2023-07-29T13:08:05;25.40;93.90
11744;DHT22;5929;51.906;7.674;2023-07-29T13:10:32;25.00;94.50
11744;DHT22;5929;51.906;7.674;2023-07-29T13:12:59;25.10;94.40
11744;DHT22;5929;51.906;7.674;2023-07-29T13:15:27;25.80;93.70
11744;DHT22;5929;51.906;7.674;2023-07-29T13:17:54;26.40;92.70
11744;DHT22;5929;51.906;7.674;2023-07-29T13:20:21;27.70;90.70
11744;DHT22;5929;51.906;7.674;2023-07-29T13:22:47;27.10;91.10
11744;DHT22;5929;51.906;7.674;2023-07-29T13:25:14;26.30;92.10
11744;DHT22;5929;51.906;7.674;2023-07-29T13:27:43;26.80;91.20
11744;DHT22;5929;51.906;7.674;2023-07-29T13:30:10;29.20;89.20
11744;DHT22;5929;51.906;7.674;2023-07-29T13:32:38;30.30;85.90
11744;DHT22;5929;51.906;7.674;2023-07-29T13:35:06;30.00;84.10
11744;DHT22;5929;51.906;7.674;2023-07-29T13:37:33;30.90;85.30
11744;DHT22;5929;51.906;7.674;2023-07-29T13:40:00;30.30;86.00
11744;DHT22;5929;51.906;7.674;2023-07-29T13:42:26;27.90;89.90
11744;DHT22;5929;51.906;7.674;2023-07-29T13:44:53;26.40;91.70
11744;DHT22;5929;51.906;7.674;2023-07-29T13:47:20;25.40;93.40
11744;DHT22;5929;51.906;7.674;2023-07-29T13:49:48;24.60;94.00
11744;DHT22;5929;51.906;7.674;2023-07-29T13:52:15;24.30;94.70
11744;DHT22;5929;51.906;7.674;2023-07-29T13:54:42;23.90;94.90
11744;DHT22;5929;51.906;7.674;2023-07-29T13:57:08;23.70;96.00
11744;DHT22;5929;51.906;7.674;2023-07-29T14:03:17;22.60;99.90
11744;DHT22;5929;51.906;7.674;2023-07-29T14:05:45;22.20;99.90
11744;DHT22;5929;51.906;7.674;2023-07-29T14:08:12;22.10;99.90
11744;DHT22;5929;51.906;7.674;2023-07-29T14:10:38;21.90;99.90
11744;DHT22;5929;51.906;7.674;2023-07-29T14:13:05;21.80;99.90
11744;DHT22;5929;51.906;7.674;2023-07-29T14:15:32;21.80;99.90
11744;DHT22;5929;51.906;7.674;2023-07-29T14:17:59;21.80;99.90
11744;DHT22;5929;51.906;7.674;2023-07-29T14:20:28;21.80;99.90
11744;DHT22;5929;51.906;7.674;2023-07-29T14:22:56;21.80;99.90
11744;DHT22;5929;51.906;7.674;2023-07-29T14:25:23;21.10;99.90
11744;DHT22;5929;51.906;7.674;2023-07-29T14:27:50;20.30;99.90
11744;DHT22;5929;51.906;7.674;2023-07-29T14:30:17;19.50;99.90
11744;DHT22;5929;51.906;7.674;2023-07-29T14:32:44;18.60;99.90
11744;DHT22;5929;51.906;7.674;2023-07-29T14:35:10;17.70;99.90
11744;DHT22;5929;51.906;7.674;2023-07-29T14:37:40;16.90;99.90
11744;DHT22;5929;51.906;7.674;2023-07-29T14:40:09;16.60;99.90
11744;DHT22;5929;51.906;7.674;2023-07-29T14:42:36;16.60;99.90
11744;DHT22;5929;51.906;7.674;2023-07-29T14:45:04;16.40;99.90
11744;DHT22;5929;51.906;7.674;2023-07-29T14:47:31;16.40;99.90
11744;DHT22;5929;51.906;7.674;2023-07-29T14:50:00;16.30;99.90
11744;DHT22;5929;51.906;7.674;2023-07-29T14:52:27;16.10;99.90
11744;DHT22;5929;51.906;7.674;2023-07-29T14:54:53;16.00;99.90
11744;DHT22;5929;51.906;7.674;2023-07-29T14:57:21;15.90;99.90
11744;DHT22;5929;51.906;7.674;2023-07-29T14:59:48;16.00;99.90
11744;DHT22;5929;51.906;7.674;2023-07-29T15:02:15;15.90;99.90
11744;DHT22;5929;51.906;7.674;2023-07-29T15:04:43;16.10;99.90
11744;DHT22;5929;51.906;7.674;2023-07-29T15:07:12;16.10;99.90
11744;DHT22;5929;51.906;7.674;2023-07-29T15:09:39;16.20;99.90
11744;DHT22;5929;51.906;7.674;2023-07-29T15:12:06;16.30;99.90
11744;DHT22;5929;51.906;7.674;2023-07-29T15:14:35;16.50;99.90
11744;DHT22;5929;51.906;7.674;2023-07-29T15:17:02;16.60;99.90
11744;DHT22;5929;51.906;7.674;2023-07-29T15:19:28;16.80;99.90
11744;DHT22;5929;51.906;7.674;2023-07-29T15:21:55;16.90;99.90
11744;DHT22;5929;51.906;7.674;2023-07-29T15:24:22;16.90;99.90
11744;DHT22;5929;51.906;7.674;2023-07-29T15:26:49;17.40;99.90
11744;DHT22;5929;51.906;7.674;2023-07-29T15:29:16;17.80;99.90
11744;DHT22;5929;51.906;7.674;2023-07-29T15:31:44;18.20;99.90
11744;DHT22;5929;51.906;7.674;2023-07-29T15:34:11;18.60;99.90
11744;DHT22;5929;51.906;7.674;2023-07-29T15:36:37;18.80;99.90
11744;DHT22;5929;51.906;7.674;2023-07-29T15:39:04;18.70;99.90
11744;DHT22;5929;51.906;7.674;2023-07-29T15:41:32;18.90;99.90
11744;DHT22;5929;51.906;7.674;2023-07-29T15:43:59;19.40;99.90
11744;DHT22;5929;51.906;7.674;2023-07-29T15:46:26;19.50;99.90
11744;DHT22;5929;51.906;7.674;2023-07-29T15:48:54;19.80;99.90
11744;DHT22;5929;51.906;7.674;2023-07-29T15:51:24;19.70;99.90
11744;DHT22;5929;51.906;7.674;2023-07-29T15:53:51;20.50;99.90